Time;durP1;ratioP1;P1;durP2;ratioP2;P2;SDS_P1;SDS_P2;PMS_P1;PMS_P2;Temp;Humidity;BMP_temperature;BMP_pressure;BME280_temperature;BME280_humidity;BME280_pressure;Samples;Min_cycle;Max_cycle;Signal;HPM_P1;HPM_P2
2021/06/26 00:00:24;;;;;;;32.42;20.00;;;;;;;;;;5087753;28;20100;-84
2021/06/26 00:02:49;;;;;;;32.50;19.70;;;;;;;;;;5088418;28;20021;-84
2021/06/26 00:05:14;;;;;;;39.95;21.38;;;;;;;;;;5054375;28;20059;-84
2021/06/26 00:07:40;;;;;;;37.55;20.95;;;;;;;;;;5088284;28;20021;-84
2021/06/26 00:10:05;;;;;;;38.40;21.00;;;;;;;;;;5087923;28;20029;-84
2021/06/26 00:12:31;;;;;;;41.65;22.17;;;;;;;;;;5087969;28;20027;-84
2021/06/26 00:14:56;;;;;;;38.33;20.90;;;;;;;;;;5088045;28;20033;-84
2021/06/26 00:17:21;;;;;;;37.72;20.92;;;;;;;;;;5054315;28;20419;-84
2021/06/26 00:19:46;;;;;;;37.55;20.58;;;;;;;;;;5088206;28;20020;-84
2021/06/26 00:22:11;;;;;;;37.38;20.95;;;;;;;;;;5088073;28;20029;-84
2021/06/26 00:24:37;;;;;;;37.75;20.35;;;;;;;;;;5087446;28;20036;-84
2021/06/26 00:27:02;;;;;;;34.70;20.45;;;;;;;;;;5087913;28;20028;-84
2021/06/26 00:29:27;;;;;;;36.47;20.67;;;;;;;;;;5085963;28;20079;-84
2021/06/26 00:31:53;;;;;;;41.45;21.15;;;;;;;;;;5087878;28;20021;-84
2021/06/26 00:34:18;;;;;;;37.90;20.00;;;;;;;;;;5087650;28;20021;-84
2021/06/26 00:36:43;;;;;;;34.97;18.90;;;;;;;;;;5054200;28;20021;-84
2021/06/26 00:39:09;;;;;;;35.47;20.90;;;;;;;;;;5086930;28;20672;-84
2021/06/26 00:41:34;;;;;;;37.42;20.77;;;;;;;;;;5054060;28;20043;-84
2021/06/26 00:43:59;;;;;;;37.38;20.90;;;;;;;;;;5085528;28;20025;-84
2021/06/26 00:46:24;;;;;;;36.17;20.63;;;;;;;;;;5053944;28;20476;-84
2021/06/26 00:48:49;;;;;;;39.72;20.90;;;;;;;;;;5054031;28;20020;-84
2021/06/26 00:51:15;;;;;;;39.13;20.90;;;;;;;;;;5053767;28;20025;-84
2021/06/26 00:53:40;;;;;;;34.30;20.50;;;;;;;;;;5054979;28;20017;-84
2021/06/26 00:56:05;;;;;;;32.47;18.70;;;;;;;;;;5053747;28;20043;-84
2021/06/26 00:58:30;;;;;;;33.95;19.85;;;;;;;;;;5053836;28;20024;-84
2021/06/26 01:00:56;;;;;;;50.35;20.90;;;;;;;;;;5053481;28;20021;-84
2021/06/26 01:03:21;;;;;;;34.10;20.35;;;;;;;;;;5053466;28;20051;-84
2021/06/26 01:05:49;;;;;;;38.03;21.42;;;;;;;;;;5054747;28;20036;-84
2021/06/26 01:08:15;;;;;;;36.40;20.65;;;;;;;;;;5053358;28;20112;-84
2021/06/26 01:10:40;;;;;;;38.78;20.83;;;;;;;;;;5053501;28;20041;-84
2021/06/26 01:13:05;;;;;;;39.05;20.33;;;;;;;;;;5053155;28;20193;-84
2021/06/26 01:15:31;;;;;;;33.75;19.95;;;;;;;;;;5053326;28;20060;-84
2021/06/26 01:17:56;;;;;;;33.50;18.70;;;;;;;;;;5054118;28;20067;-84
2021/06/26 01:20:22;;;;;;;33.30;18.42;;;;;;;;;;5053069;28;20047;-84
2021/06/26 01:22:51;;;;;;;34.28;18.50;;;;;;;;;;5054457;28;20071;-84
2021/06/26 01:25:18;;;;;;;32.58;18.75;;;;;;;;;;5052853;28;20052;-84
2021/06/26 01:27:44;;;;;;;34.88;17.85;;;;;;;;;;5053110;28;20024;-84
2021/06/26 01:30:10;;;;;;;33.63;19.02;;;;;;;;;;5052927;28;20465;-84
2021/06/26 01:32:35;;;;;;;35.85;18.95;;;;;;;;;;5053040;28;20043;-84
2021/06/26 01:35:01;;;;;;;30.42;18.85;;;;;;;;;;5053134;28;20468;-84
2021/06/26 01:37:26;;;;;;;30.65;18.70;;;;;;;;;;5052910;28;20025;-84
2021/06/26 01:39:52;;;;;;;26.48;16.90;;;;;;;;;;5053202;28;20025;-84
2021/06/26 01:42:17;;;;;;;30.80;18.45;;;;;;;;;;5054509;28;20368;-84
2021/06/26 01:44:42;;;;;;;33.63;17.20;;;;;;;;;;5052634;28;20036;-85
2021/06/26 01:47:08;;;;;;;35.78;20.05;;;;;;;;;;5052747;28;20028;-85
2021/06/26 01:49:33;;;;;;;31.42;19.17;;;;;;;;;;5051492;28;20102;-84
2021/06/26 01:51:59;;;;;;;29.55;18.48;;;;;;;;;;5051970;28;20013;-84
2021/06/26 01:54:25;;;;;;;35.13;20.20;;;;;;;;;;5052462;28;20052;-84
2021/06/26 01:56:50;;;;;;;33.95;20.92;;;;;;;;;;5052690;28;20017;-84
2021/06/26 01:59:15;;;;;;;38.40;21.20;;;;;;;;;;5053766;28;20055;-84
2021/06/26 02:01:41;;;;;;;35.10;20.13;;;;;;;;;;5052466;28;20032;-84
2021/06/26 02:04:06;;;;;;;32.35;19.02;;;;;;;;;;5052153;28;20392;-84
2021/06/26 02:06:31;;;;;;;30.88;18.25;;;;;;;;;;5052322;28;20051;-84
2021/06/26 02:08:56;;;;;;;35.63;19.42;;;;;;;;;;5052643;28;20427;-84
2021/06/26 02:11:22;;;;;;;35.67;19.08;;;;;;;;;;5052228;28;20029;-84
2021/06/26 02:13:47;;;;;;;35.17;19.73;;;;;;;;;;5053616;28;20021;-84
2021/06/26 02:16:12;;;;;;;40.25;21.70;;;;;;;;;;5052088;28;20063;-84
2021/06/26 02:18:37;;;;;;;36.92;20.90;;;;;;;;;;5052663;28;20040;-84
2021/06/26 02:21:03;;;;;;;38.05;20.98;;;;;;;;;;5052098;28;20111;-84
2021/06/26 02:23:28;;;;;;;39.38;20.25;;;;;;;;;;5051997;28;20024;-84
2021/06/26 02:25:53;;;;;;;38.30;21.15;;;;;;;;;;5053412;28;20024;-84
2021/06/26 02:28:19;;;;;;;44.95;25.08;;;;;;;;;;5051989;28;20017;-84
2021/06/26 02:30:44;;;;;;;49.88;24.52;;;;;;;;;;5052127;28;20020;-84
2021/06/26 02:33:09;;;;;;;44.58;23.55;;;;;;;;;;5051933;28;20453;-83
2021/06/26 02:35:34;;;;;;;41.15;22.42;;;;;;;;;;5052080;28;20380;-85
2021/06/26 02:38:00;;;;;;;38.70;22.30;;;;;;;;;;5052320;28;20025;-84
2021/06/26 02:40:25;;;;;;;34.00;20.02;;;;;;;;;;5053047;28;20071;-84
2021/06/26 02:42:50;;;;;;;34.08;19.90;;;;;;;;;;5052013;28;20031;-84
2021/06/26 02:45:15;;;;;;;36.67;19.73;;;;;;;;;;5052790;28;20545;-84
2021/06/26 02:47:41;;;;;;;33.60;19.60;;;;;;;;;;5051580;28;20112;-84
2021/06/26 02:50:07;;;;;;;32.00;18.98;;;;;;;;;;5051735;28;20035;-84
2021/06/26 02:52:32;;;;;;;37.55;19.15;;;;;;;;;;5051459;28;20067;-84
2021/06/26 02:54:58;;;;;;;33.15;19.00;;;;;;;;;;5051918;28;20116;-84
2021/06/26 02:57:23;;;;;;;31.75;17.63;;;;;;;;;;5051560;28;20036;-84
2021/06/26 02:59:49;;;;;;;33.08;18.42;;;;;;;;;;5051516;28;20025;-83
2021/06/26 03:02:14;;;;;;;34.00;18.77;;;;;;;;;;5053622;28;20528;-84
2021/06/26 03:04:39;;;;;;;30.40;18.85;;;;;;;;;;5055748;28;20025;-84
2021/06/26 03:07:05;;;;;;;31.45;17.92;;;;;;;;;;5055521;28;20013;-84
2021/06/26 03:09:30;;;;;;;31.67;18.13;;;;;;;;;;5055612;28;20013;-84
2021/06/26 03:11:55;;;;;;;39.15;21.30;;;;;;;;;;5055709;28;20126;-84
2021/06/26 03:14:20;;;;;;;45.30;23.20;;;;;;;;;;5055494;28;20021;-84
2021/06/26 03:16:46;;;;;;;44.65;24.73;;;;;;;;;;5055260;28;20419;-84
2021/06/26 03:19:11;;;;;;;38.30;22.08;;;;;;;;;;5055675;28;20411;-84
2021/06/26 03:21:36;;;;;;;38.97;22.25;;;;;;;;;;5055353;28;20055;-84
2021/06/26 03:24:02;;;;;;;42.25;24.17;;;;;;;;;;5055434;28;20025;-84
2021/06/26 03:26:27;;;;;;;44.70;22.17;;;;;;;;;;5055362;28;20464;-83
2021/06/26 03:28:52;;;;;;;36.60;20.67;;;;;;;;;;5056948;28;20020;-84
2021/06/26 03:31:17;;;;;;;36.53;21.08;;;;;;;;;;5055543;28;20025;-84
2021/06/26 03:33:43;;;;;;;42.63;20.85;;;;;;;;;;5056510;28;20010;-84
2021/06/26 03:36:09;;;;;;;46.25;24.60;;;;;;;;;;5056590;28;20075;-84
2021/06/26 03:38:34;;;;;;;47.55;23.85;;;;;;;;;;5055134;28;20028;-84
2021/06/26 03:40:59;;;;;;;51.90;25.30;;;;;;;;;;5055312;28;20021;-84
2021/06/26 03:43:24;;;;;;;51.15;28.15;;;;;;;;;;5055001;28;20025;-85
2021/06/26 03:45:49;;;;;;;50.63;26.08;;;;;;;;;;5055125;28;20476;-84
2021/06/26 03:48:15;;;;;;;41.70;24.27;;;;;;;;;;5055977;28;20512;-84
2021/06/26 03:50:41;;;;;;;47.28;24.35;;;;;;;;;;5054704;28;20009;-84
2021/06/26 03:53:06;;;;;;;47.38;25.58;;;;;;;;;;5055057;28;20066;-84
2021/06/26 03:55:31;;;;;;;51.72;25.75;;;;;;;;;;5056307;28;20447;-84
2021/06/26 03:57:57;;;;;;;43.72;24.65;;;;;;;;;;5054621;28;20023;-84
2021/06/26 04:00:22;;;;;;;43.15;24.42;;;;;;;;;;5056084;28;20029;-84
2021/06/26 04:02:47;;;;;;;49.05;26.10;;;;;;;;;;5054078;28;20074;-84
2021/06/26 04:05:12;;;;;;;47.67;27.10;;;;;;;;;;5054643;28;20031;-84
2021/06/26 04:07:37;;;;;;;44.83;25.80;;;;;;;;;;5054625;28;20013;-84
2021/06/26 04:10:04;;;;;;;46.78;25.85;;;;;;;;;;5056043;28;20016;-84
2021/06/26 04:12:29;;;;;;;49.38;27.45;;;;;;;;;;5055659;28;20028;-84
2021/06/26 04:14:54;;;;;;;46.63;26.33;;;;;;;;;;5053774;28;20472;-84
2021/06/26 04:17:19;;;;;;;52.22;27.27;;;;;;;;;;5078972;28;20108;-84
2021/06/26 04:19:44;;;;;;;49.97;26.83;;;;;;;;;;5050274;28;20021;-84
2021/06/26 04:22:11;;;;;;;48.50;26.60;;;;;;;;;;5054601;28;20472;-84
2021/06/26 04:24:36;;;;;;;48.40;25.98;;;;;;;;;;5054423;28;20029;-84
2021/06/26 04:27:02;;;;;;;52.42;27.77;;;;;;;;;;5054374;28;20032;-84
2021/06/26 04:29:27;;;;;;;55.25;27.52;;;;;;;;;;5055547;28;20016;-84
2021/06/26 04:31:52;;;;;;;46.75;26.95;;;;;;;;;;5054232;28;20376;-84
2021/06/26 04:34:17;;;;;;;49.00;27.20;;;;;;;;;;5054396;28;20040;-84
2021/06/26 04:36:44;;;;;;;47.95;26.42;;;;;;;;;;5054194;28;20468;-84
2021/06/26 04:39:09;;;;;;;54.47;28.77;;;;;;;;;;5054084;28;20013;-84
2021/06/26 04:41:35;;;;;;;54.22;28.40;;;;;;;;;;5055504;28;20350;-85
2021/06/26 04:44:00;;;;;;;56.15;29.42;;;;;;;;;;5053737;28;20064;-84
2021/06/26 04:46:25;;;;;;;54.13;30.50;;;;;;;;;;5053554;28;20024;-84
2021/06/26 04:48:50;;;;;;;60.15;31.38;;;;;;;;;;5052807;28;20464;-84
2021/06/26 04:51:16;;;;;;;65.13;34.35;;;;;;;;;;5054114;28;20024;-84
2021/06/26 04:53:42;;;;;;;60.63;30.15;;;;;;;;;;5053156;28;20028;-84
2021/06/26 04:56:07;;;;;;;61.42;31.52;;;;;;;;;;5052955;28;20013;-84
2021/06/26 04:58:33;;;;;;;54.70;29.67;;;;;;;;;;5053015;28;20032;-84
2021/06/26 05:00:59;;;;;;;57.90;30.10;;;;;;;;;;5052855;28;20017;-84
2021/06/26 05:03:25;;;;;;;60.03;30.17;;;;;;;;;;5054246;28;20464;-85
2021/06/26 05:05:50;;;;;;;55.60;29.33;;;;;;;;;;5052843;28;20028;-84
2021/06/26 05:08:16;;;;;;;55.30;28.05;;;;;;;;;;5052752;28;20083;-84
2021/06/26 05:10:42;;;;;;;51.45;29.17;;;;;;;;;;5052767;28;20400;-84
2021/06/26 05:13:07;;;;;;;58.75;29.83;;;;;;;;;;5052755;28;20372;-84
2021/06/26 05:15:32;;;;;;;59.67;31.50;;;;;;;;;;5052602;28;20021;-84
2021/06/26 05:17:58;;;;;;;57.50;29.63;;;;;;;;;;5053596;28;20412;-84
2021/06/26 05:20:23;;;;;;;58.75;32.60;;;;;;;;;;5053411;28;20468;-85
2021/06/26 05:22:48;;;;;;;60.10;29.65;;;;;;;;;;5053201;28;20070;-84
2021/06/26 05:25:14;;;;;;;62.72;31.40;;;;;;;;;;5053719;28;20017;-85
2021/06/26 05:27:39;;;;;;;63.00;31.67;;;;;;;;;;5053139;28;20028;-85
2021/06/26 05:30:05;;;;;;;54.88;29.38;;;;;;;;;;5054223;28;20013;-85
2021/06/26 05:32:30;;;;;;;60.92;31.63;;;;;;;;;;5053127;28;20476;-84
2021/06/26 05:34:55;;;;;;;51.00;27.50;;;;;;;;;;5052826;28;20028;-84
2021/06/26 05:37:20;;;;;;;52.35;29.33;;;;;;;;;;5052646;28;20357;-84
2021/06/26 05:39:46;;;;;;;60.38;32.40;;;;;;;;;;5054252;28;20433;-85
2021/06/26 05:42:11;;;;;;;60.70;31.58;;;;;;;;;;5054022;28;20009;-84
2021/06/26 05:44:36;;;;;;;59.38;31.13;;;;;;;;;;5052645;28;20035;-84
2021/06/26 05:47:01;;;;;;;49.67;26.50;;;;;;;;;;5052454;28;20025;-84
2021/06/26 05:49:27;;;;;;;58.50;32.00;;;;;;;;;;5052444;28;20021;-84
2021/06/26 05:51:52;;;;;;;62.25;32.90;;;;;;;;;;5053773;28;20500;-84
2021/06/26 05:54:17;;;;;;;56.08;27.10;;;;;;;;;;5052450;28;20135;-84
2021/06/26 05:56:42;;;;;;;58.10;30.15;;;;;;;;;;5051907;28;20020;-84
2021/06/26 05:59:08;;;;;;;49.03;26.05;;;;;;;;;;5046176;28;20059;-84
2021/06/26 06:01:33;;;;;;;60.03;30.05;;;;;;;;;;5085920;28;20380;-84
2021/06/26 06:03:58;;;;;;;56.65;28.38;;;;;;;;;;5052407;28;20017;-84
2021/06/26 06:06:24;;;;;;;55.83;29.13;;;;;;;;;;5052019;28;20021;-84
2021/06/26 06:08:49;;;;;;;51.08;25.10;;;;;;;;;;5052417;28;20468;-84
2021/06/26 06:11:14;;;;;;;48.15;22.27;;;;;;;;;;5052165;28;20067;-84
2021/06/26 06:13:40;;;;;;;48.90;25.88;;;;;;;;;;5084945;28;20476;-84
2021/06/26 06:16:05;;;;;;;33.40;17.63;;;;;;;;;;5052219;28;20028;-84
2021/06/26 06:18:30;;;;;;;34.22;19.27;;;;;;;;;;5051718;28;20492;-83
2021/06/26 06:20:55;;;;;;;32.22;17.73;;;;;;;;;;5053382;28;20091;-83
2021/06/26 06:23:21;;;;;;;32.22;18.08;;;;;;;;;;5051940;28;20111;-83
2021/06/26 06:25:46;;;;;;;32.70;18.98;;;;;;;;;;5051955;28;20468;-83
2021/06/26 06:28:11;;;;;;;33.00;18.75;;;;;;;;;;5052085;28;20036;-83
2021/06/26 06:30:36;;;;;;;34.20;18.52;;;;;;;;;;5050780;28;20048;-82
2021/06/26 06:33:05;;;;;;;28.67;17.30;;;;;;;;;;5052414;28;20036;-83
2021/06/26 06:35:30;;;;;;;31.83;18.85;;;;;;;;;;5050639;28;20032;-83
2021/06/26 06:37:55;;;;;;;30.67;16.65;;;;;;;;;;5050933;28;20484;-83
2021/06/26 06:40:21;;;;;;;27.58;17.13;;;;;;;;;;5051261;28;20468;-83
2021/06/26 06:42:46;;;;;;;31.77;17.55;;;;;;;;;;5052039;28;20029;-84
2021/06/26 06:45:12;;;;;;;27.60;16.33;;;;;;;;;;5050943;28;20051;-82
2021/06/26 06:47:37;;;;;;;31.65;19.35;;;;;;;;;;5051852;28;20469;-83
2021/06/26 06:50:12;;;;;;;30.60;15.55;;;;;;;;;;5051454;28;20021;-83
2021/06/26 06:52:37;;;;;;;31.27;16.52;;;;;;;;;;5050981;28;20362;-83
2021/06/26 06:55:04;;;;;;;27.25;16.58;;;;;;;;;;5051493;28;20123;-82
2021/06/26 06:57:29;;;;;;;27.33;14.70;;;;;;;;;;5050737;28;20103;-83
2021/06/26 06:59:54;;;;;;;23.83;13.68;;;;;;;;;;5051084;28;20120;-82
2021/06/26 07:02:19;;;;;;;29.40;15.38;;;;;;;;;;5051932;28;20032;-83
2021/06/26 07:04:45;;;;;;;23.85;13.30;;;;;;;;;;5051289;28;20021;-82
2021/06/26 07:07:10;;;;;;;24.92;13.00;;;;;;;;;;5052194;28;20051;-82
2021/06/26 07:09:35;;;;;;;31.95;15.68;;;;;;;;;;5049243;28;20201;-83
2021/06/26 07:12:01;;;;;;;25.08;13.80;;;;;;;;;;5050989;28;20025;-82
2021/06/26 07:14:26;;;;;;;29.27;14.75;;;;;;;;;;5050948;28;20468;-82
2021/06/26 07:16:51;;;;;;;32.28;13.60;;;;;;;;;;5050496;28;20021;-83
2021/06/26 07:19:17;;;;;;;23.88;13.45;;;;;;;;;;5050094;28;20021;-83
2021/06/26 07:21:42;;;;;;;19.38;12.50;;;;;;;;;;5049827;28;20017;-82
2021/06/26 07:24:08;;;;;;;33.97;13.18;;;;;;;;;;5050673;28;20587;-83
2021/06/26 07:26:33;;;;;;;25.10;13.60;;;;;;;;;;5051072;28;20029;-82
2021/06/26 07:28:58;;;;;;;25.30;12.88;;;;;;;;;;5052070;28;20017;-83
2021/06/26 07:31:23;;;;;;;20.63;12.43;;;;;;;;;;5046896;28;20056;-83
2021/06/26 07:33:49;;;;;;;25.20;12.35;;;;;;;;;;5050872;28;20039;-82
2021/06/26 07:36:14;;;;;;;21.38;12.27;;;;;;;;;;5050685;28;20035;-83
2021/06/26 07:38:39;;;;;;;18.13;10.93;;;;;;;;;;5050833;28;20059;-82
2021/06/26 07:41:04;;;;;;;18.45;12.57;;;;;;;;;;5052235;28;20021;-82
2021/06/26 07:43:30;;;;;;;18.15;12.02;;;;;;;;;;5050834;28;20033;-83
2021/06/26 07:45:55;;;;;;;20.67;12.55;;;;;;;;;;5050647;28;20013;-82
2021/06/26 07:48:20;;;;;;;20.05;12.05;;;;;;;;;;5053340;28;20017;-83
2021/06/26 07:50:50;;;;;;;21.10;12.50;;;;;;;;;;5053013;28;20025;-83
2021/06/26 07:53:15;;;;;;;21.98;12.13;;;;;;;;;;5048949;28;20387;-82
2021/06/26 07:55:40;;;;;;;21.15;12.80;;;;;;;;;;5054242;28;20025;-83
2021/06/26 07:58:06;;;;;;;20.08;12.38;;;;;;;;;;5054084;28;20034;-83
2021/06/26 08:00:31;;;;;;;23.55;12.23;;;;;;;;;;5054066;28;20471;-83
2021/06/26 08:02:56;;;;;;;24.48;13.90;;;;;;;;;;5053552;28;20032;-82
2021/06/26 08:05:21;;;;;;;19.25;10.93;;;;;;;;;;5054170;28;20683;-83
2021/06/26 08:07:46;;;;;;;17.85;11.13;;;;;;;;;;5053880;28;20055;-83
2021/06/26 08:10:12;;;;;;;18.73;11.43;;;;;;;;;;5053790;28;20119;-83
2021/06/26 08:12:37;;;;;;;15.82;11.07;;;;;;;;;;5053084;28;20021;-83
2021/06/26 08:15:02;;;;;;;17.60;10.90;;;;;;;;;;5053738;28;20049;-83
2021/06/26 08:17:27;;;;;;;19.00;12.25;;;;;;;;;;5050749;28;20107;-83
2021/06/26 08:19:53;;;;;;;17.67;12.10;;;;;;;;;;5054559;28;20021;-83
2021/06/26 08:22:18;;;;;;;20.63;12.00;;;;;;;;;;5052347;28;20032;-83
2021/06/26 08:24:43;;;;;;;19.92;12.23;;;;;;;;;;5053045;28;20563;-82
2021/06/26 08:27:08;;;;;;;19.13;12.38;;;;;;;;;;5053631;28;20021;-81
2021/06/26 08:29:33;;;;;;;21.00;12.25;;;;;;;;;;5052309;28;20105;-81
2021/06/26 08:31:59;;;;;;;18.88;11.68;;;;;;;;;;5052156;28;20486;-81
2021/06/26 08:34:24;;;;;;;18.15;11.23;;;;;;;;;;5053309;28;20021;-81
2021/06/26 08:36:50;;;;;;;19.25;11.65;;;;;;;;;;5054815;28;20070;-81
2021/06/26 08:39:19;;;;;;;19.65;12.05;;;;;;;;;;5053325;28;20013;-81
2021/06/26 08:41:45;;;;;;;19.63;12.23;;;;;;;;;;5054617;28;20047;-81
2021/06/26 08:44:12;;;;;;;18.02;11.57;;;;;;;;;;5054677;28;20028;-81
2021/06/26 08:46:39;;;;;;;17.05;11.50;;;;;;;;;;5053365;28;20392;-81
2021/06/26 08:49:05;;;;;;;17.92;11.40;;;;;;;;;;5053392;28;20024;-81
2021/06/26 08:51:30;;;;;;;17.00;11.55;;;;;;;;;;5052888;28;20017;-81
2021/06/26 08:53:55;;;;;;;19.50;11.32;;;;;;;;;;5053038;28;20013;-81
2021/06/26 08:56:20;;;;;;;22.83;11.88;;;;;;;;;;5053032;28;20013;-81
2021/06/26 08:58:45;;;;;;;20.45;11.60;;;;;;;;;;5054569;28;20021;-81
2021/06/26 09:01:11;;;;;;;22.77;11.70;;;;;;;;;;5052191;28;20087;-81
2021/06/26 09:03:36;;;;;;;27.05;12.05;;;;;;;;;;5052874;28;20123;-81
2021/06/26 09:06:06;;;;;;;17.15;11.13;;;;;;;;;;5053271;28;20120;-81
2021/06/26 09:08:32;;;;;;;19.35;12.25;;;;;;;;;;5052976;28;20028;-81
2021/06/26 09:10:57;;;;;;;19.33;12.88;;;;;;;;;;5052616;28;20630;-81
2021/06/26 09:13:24;;;;;;;20.73;11.15;;;;;;;;;;5052854;28;20071;-81
2021/06/26 09:15:50;;;;;;;19.63;11.57;;;;;;;;;;5052848;28;20033;-81
2021/06/26 09:18:15;;;;;;;18.20;11.70;;;;;;;;;;5052777;28;20017;-81
2021/06/26 09:20:43;;;;;;;21.42;12.13;;;;;;;;;;5086581;28;20020;-81
2021/06/26 09:23:36;;;;;;;19.40;11.68;;;;;;;;;;5052656;28;20028;-80
2021/06/26 09:26:05;;;;;;;18.23;11.63;;;;;;;;;;5052571;28;20027;-81
2021/06/26 09:28:31;;;;;;;18.85;11.55;;;;;;;;;;5052333;28;20029;-81
2021/06/26 09:30:56;;;;;;;17.45;12.25;;;;;;;;;;5052998;28;20032;-81
2021/06/26 09:33:23;;;;;;;20.60;12.27;;;;;;;;;;5052908;28;20349;-81
2021/06/26 09:36:01;;;;;;;18.02;9.82;;;;;;;;;;5052796;28;20017;-81
2021/06/26 09:38:26;;;;;;;17.92;11.45;;;;;;;;;;5052261;28;20392;-82
2021/06/26 09:40:51;;;;;;;19.85;11.93;;;;;;;;;;5052478;28;20036;-81
2021/06/26 09:43:24;;;;;;;23.95;13.13;;;;;;;;;;5052640;28;20036;-81
2021/06/26 09:45:49;;;;;;;23.67;12.70;;;;;;;;;;5048589;28;20070;-81
2021/06/26 09:48:14;;;;;;;27.42;11.20;;;;;;;;;;5052341;28;20111;-81
2021/06/26 09:50:41;;;;;;;18.50;11.70;;;;;;;;;;5053432;28;20015;-81
2021/06/26 09:53:07;;;;;;;18.75;11.98;;;;;;;;;;5052275;28;20472;-81
2021/06/26 09:55:36;;;;;;;18.70;11.13;;;;;;;;;;5052182;28;20083;-81
2021/06/26 09:58:11;;;;;;;19.25;12.20;;;;;;;;;;5053462;28;20028;-81
2021/06/26 10:00:38;;;;;;;21.08;11.95;;;;;;;;;;5052416;28;20059;-81
2021/06/26 10:03:03;;;;;;;23.08;11.90;;;;;;;;;;5052369;28;20029;-81
2021/06/26 10:05:29;;;;;;;19.65;11.38;;;;;;;;;;5050821;28;20051;-82
2021/06/26 10:07:56;;;;;;;19.30;12.23;;;;;;;;;;5051298;28;20025;-81
2021/06/26 10:10:23;;;;;;;17.17;11.60;;;;;;;;;;5049085;28;20029;-81
2021/06/26 10:12:49;;;;;;;26.95;12.82;;;;;;;;;;5052362;28;20109;-81
2021/06/26 10:15:15;;;;;;;19.90;12.85;;;;;;;;;;5047136;28;20025;-81
2021/06/26 10:17:40;;;;;;;21.80;12.55;;;;;;;;;;5055845;28;20083;-81
2021/06/26 10:20:07;;;;;;;21.02;12.30;;;;;;;;;;5051470;28;20025;-82
2021/06/26 10:22:40;;;;;;;21.85;12.00;;;;;;;;;;5051138;28;20029;-82
2021/06/26 10:25:06;;;;;;;19.50;11.88;;;;;;;;;;5046341;28;20103;-82
2021/06/26 10:27:32;;;;;;;17.27;11.38;;;;;;;;;;5051574;28;20410;-82
2021/06/26 10:30:07;;;;;;;19.77;11.93;;;;;;;;;;5051091;28;20115;-82
2021/06/26 10:32:33;;;;;;;19.58;10.90;;;;;;;;;;5052994;28;20342;-81
2021/06/26 10:34:58;;;;;;;21.27;11.85;;;;;;;;;;5050530;28;20036;-82
2021/06/26 10:37:24;;;;;;;19.75;10.48;;;;;;;;;;5050855;28;20054;-81
2021/06/26 10:40:06;;;;;;;18.55;10.68;;;;;;;;;;5049538;28;20024;-82
2021/06/26 10:42:33;;;;;;;18.45;10.60;;;;;;;;;;5047623;28;20040;-82
2021/06/26 10:44:59;;;;;;;18.25;11.77;;;;;;;;;;5051627;28;20071;-82
2021/06/26 10:47:35;;;;;;;20.52;11.35;;;;;;;;;;5051130;28;20537;-82
2021/06/26 10:50:20;;;;;;;21.98;12.50;;;;;;;;;;5052463;28;20074;-82
2021/06/26 10:52:46;;;;;;;20.90;11.18;;;;;;;;;;5065149;28;20021;-81
2021/06/26 10:55:11;;;;;;;16.65;10.80;;;;;;;;;;5051469;28;20139;-82
2021/06/26 10:57:45;;;;;;;20.88;9.57;;;;;;;;;;5050021;28;20119;-82
2021/06/26 11:00:10;;;;;;;19.55;10.45;;;;;;;;;;5049473;28;20159;-82
2021/06/26 11:02:39;;;;;;;14.65;9.57;;;;;;;;;;5051050;28;20075;-82
2021/06/26 11:05:05;;;;;;;14.52;9.05;;;;;;;;;;5050813;28;20036;-82
2021/06/26 11:07:34;;;;;;;15.70;8.70;;;;;;;;;;5048836;28;20043;-81
2021/06/26 11:10:05;;;;;;;15.75;8.27;;;;;;;;;;5051152;28;20743;-81
2021/06/26 11:12:36;;;;;;;11.35;7.57;;;;;;;;;;5051030;28;20032;-82
2021/06/26 11:15:01;;;;;;;11.52;7.25;;;;;;;;;;5049716;28;20032;-82
2021/06/26 11:17:40;;;;;;;16.08;8.00;;;;;;;;;;5050996;28;20047;-82
2021/06/26 11:20:07;;;;;;;12.93;8.40;;;;;;;;;;5050237;28;20104;-81
2021/06/26 11:22:32;;;;;;;12.98;8.63;;;;;;;;;;5051814;28;20036;-82
2021/06/26 11:24:57;;;;;;;14.15;8.25;;;;;;;;;;5053709;28;20024;-82
2021/06/26 11:27:23;;;;;;;13.20;8.10;;;;;;;;;;5049628;28;20296;-82
2021/06/26 11:29:49;;;;;;;13.35;7.95;;;;;;;;;;5049948;28;20356;-81
2021/06/26 11:32:20;;;;;;;15.30;8.60;;;;;;;;;;5053639;28;20484;-82
2021/06/26 11:34:52;;;;;;;13.77;9.25;;;;;;;;;;5054108;28;20048;-81
2021/06/26 11:37:17;;;;;;;13.97;8.97;;;;;;;;;;5060695;28;20029;-82
2021/06/26 11:39:42;;;;;;;18.40;9.00;;;;;;;;;;5053529;28;20296;-81
2021/06/26 11:42:17;;;;;;;17.60;8.80;;;;;;;;;;5054307;28;20013;-81
2021/06/26 11:44:43;;;;;;;13.45;7.55;;;;;;;;;;5052786;28;20029;-81
2021/06/26 11:47:08;;;;;;;9.23;6.85;;;;;;;;;;5054387;28;20376;-81
2021/06/26 11:49:38;;;;;;;12.02;7.70;;;;;;;;;;5054130;28;20028;-81
2021/06/26 11:52:05;;;;;;;13.80;8.40;;;;;;;;;;5054878;28;20017;-81
2021/06/26 11:54:30;;;;;;;14.15;8.45;;;;;;;;;;5053436;28;20028;-82
2021/06/26 11:56:55;;;;;;;16.45;9.02;;;;;;;;;;5055584;28;20021;-81
2021/06/26 11:59:22;;;;;;;9.75;7.32;;;;;;;;;;5053833;28;20108;-81
2021/06/26 12:01:48;;;;;;;15.95;7.68;;;;;;;;;;5043891;28;20578;-81
2021/06/26 12:04:24;;;;;;;13.13;7.95;;;;;;;;;;5053709;28;20024;-81
2021/06/26 12:06:50;;;;;;;14.18;7.32;;;;;;;;;;5053043;28;20036;-81
2021/06/26 12:09:18;;;;;;;10.60;7.70;;;;;;;;;;5054162;28;20021;-81
2021/06/26 12:11:43;;;;;;;11.63;7.30;;;;;;;;;;5055332;28;20074;-81
2021/06/26 12:14:10;;;;;;;14.30;7.20;;;;;;;;;;5053985;28;20528;-81
2021/06/26 12:16:36;;;;;;;9.20;6.50;;;;;;;;;;5054737;28;20373;-81
2021/06/26 12:19:06;;;;;;;9.90;7.20;;;;;;;;;;5054027;28;20064;-81
2021/06/26 12:21:40;;;;;;;9.52;6.55;;;;;;;;;;5054779;28;20024;-81
2021/06/26 12:24:05;;;;;;;10.52;6.03;;;;;;;;;;5052204;28;20557;-81
2021/06/26 12:26:30;;;;;;;10.60;6.70;;;;;;;;;;5053607;28;20041;-81
2021/06/26 12:28:56;;;;;;;11.35;6.53;;;;;;;;;;5053657;28;20028;-81
2021/06/26 12:31:22;;;;;;;11.80;6.40;;;;;;;;;;5052041;28;20017;-82
2021/06/26 12:34:00;;;;;;;9.23;5.88;;;;;;;;;;5052470;28;20025;-81
2021/06/26 12:36:26;;;;;;;8.63;5.65;;;;;;;;;;5055081;28;20029;-81
2021/06/26 12:38:51;;;;;;;9.30;5.80;;;;;;;;;;5055060;28;20040;-81
2021/06/26 12:41:20;;;;;;;8.60;5.97;;;;;;;;;;5053894;28;20029;-81
2021/06/26 12:43:46;;;;;;;7.75;5.60;;;;;;;;;;5052804;28;20021;-81
2021/06/26 12:46:12;;;;;;;11.48;6.72;;;;;;;;;;5053223;28;20388;-82
2021/06/26 12:48:39;;;;;;;10.07;6.20;;;;;;;;;;5054914;28;20381;-81
2021/06/26 12:51:07;;;;;;;9.88;5.97;;;;;;;;;;5053478;28;20055;-81
2021/06/26 12:53:43;;;;;;;9.63;5.65;;;;;;;;;;5053219;28;20472;-81
2021/06/26 12:56:11;;;;;;;14.60;5.80;;;;;;;;;;5053241;28;20023;-81
2021/06/26 12:58:37;;;;;;;9.00;5.82;;;;;;;;;;5053221;28;20427;-82
2021/06/26 13:01:02;;;;;;;9.02;5.78;;;;;;;;;;5084004;28;20376;-81
2021/06/26 13:03:28;;;;;;;9.38;5.97;;;;;;;;;;5050915;28;20017;-84
2021/06/26 13:06:03;;;;;;;10.05;6.18;;;;;;;;;;5050881;28;20036;-83
2021/06/26 13:08:28;;;;;;;12.32;5.95;;;;;;;;;;5086712;28;20071;-82
2021/06/26 13:10:54;;;;;;;8.38;5.55;;;;;;;;;;5051877;28;20021;-83
2021/06/26 13:13:25;;;;;;;10.20;6.25;;;;;;;;;;5051903;28;20051;-82
2021/06/26 13:15:51;;;;;;;8.48;5.95;;;;;;;;;;5077603;28;20534;-82
2021/06/26 13:18:16;;;;;;;7.22;4.93;;;;;;;;;;5050426;28;20029;-82
2021/06/26 13:20:42;;;;;;;10.85;5.38;;;;;;;;;;5052155;28;20480;-82
2021/06/26 13:23:07;;;;;;;8.07;5.68;;;;;;;;;;5051550;28;20021;-82
2021/06/26 13:25:35;;;;;;;9.30;5.50;;;;;;;;;;5081002;28;20119;-82
2021/06/26 13:28:00;;;;;;;8.93;4.70;;;;;;;;;;5052652;28;20024;-81
2021/06/26 13:30:27;;;;;;;5.65;4.10;;;;;;;;;;5053436;28;20040;-82
2021/06/26 13:32:57;;;;;;;6.13;4.38;;;;;;;;;;5051628;28;20025;-82
2021/06/26 13:35:22;;;;;;;6.80;4.22;;;;;;;;;;5054415;28;20024;-82
2021/06/26 13:37:47;;;;;;;11.50;4.82;;;;;;;;;;5053349;28;20660;-82
2021/06/26 13:40:12;;;;;;;8.40;4.60;;;;;;;;;;5053247;28;20434;-83
2021/06/26 13:42:37;;;;;;;7.10;4.70;;;;;;;;;;5052273;28;20031;-82
2021/06/26 13:45:03;;;;;;;9.10;4.68;;;;;;;;;;5051490;28;20056;-82
2021/06/26 13:47:28;;;;;;;6.85;4.47;;;;;;;;;;5052447;28;20017;-82
2021/06/26 13:49:53;;;;;;;7.03;4.35;;;;;;;;;;5052006;28;20115;-82
2021/06/26 13:52:20;;;;;;;5.88;3.97;;;;;;;;;;5053401;28;20383;-82
2021/06/26 13:54:46;;;;;;;5.63;3.90;;;;;;;;;;5048031;28;20029;-82
2021/06/26 13:57:11;;;;;;;7.07;4.60;;;;;;;;;;5052161;28;20035;-82
2021/06/26 13:59:36;;;;;;;5.40;3.72;;;;;;;;;;5052245;28;20029;-82
2021/06/26 14:02:01;;;;;;;8.27;3.92;;;;;;;;;;5051760;28;20475;-82
2021/06/26 14:04:27;;;;;;;6.72;3.78;;;;;;;;;;5053009;28;20037;-82
2021/06/26 14:06:52;;;;;;;5.00;3.95;;;;;;;;;;5051820;28;20040;-82
2021/06/26 14:09:17;;;;;;;5.60;4.00;;;;;;;;;;5052043;28;20016;-82
2021/06/26 14:11:42;;;;;;;8.90;3.92;;;;;;;;;;5046424;28;20037;-82
2021/06/26 14:14:07;;;;;;;10.10;4.72;;;;;;;;;;5048028;28;20020;-83